aviador You're here:

KGPT Decoded Metar

GULFPORT in MS, USA
Report Time2017-07-21 07:53:00
UTC Time2017-07-21 08:36:39
Flight Rules vfr VFR
WindCalm
Visibility9999 m
Phenomena:Vicinity thunderstorm
Clouds:N/A
Expected CloudBase > 400 ft AGL from Temp-Dew spread
CeilingNone
Temp27°C (ISA +12)
Dew Point26°C (94% RH)
Heat Index31.2°C
QNH1016 hPa
Density Alt1,778 ft
Elevation46 ft
Report Wrong Elevation
Raw Report
KGPT 210753Z AUTO 00000KT 10SM VCTS CLR 27/26 A2999 RMK AO2 LTG
DSNT E AND SE SLP154 T02670256=

Extra information for KGPT:More info

Metar Taf Metar & Taf Last 4 Metars F.Rules Stats Wind Profile Meteogram Temp Stats Airport Information Weather charts Add Link Nearby VenuesMetar ALERT Operation Metar Decoded Social comments

AIRNAV info for KGPT